This is the latest recevied weather packets stored in our database for station/object WA1NHP. If no packets are shown the sender has not sent any weather packets the latest 1 day(s).
| Time | Temp. | Humidity | Pressure | Rain* | Wind** | Luminosity | Snow |
|---|---|---|---|---|---|---|---|
| 1778096044 | 14.44° C | 96% | 1023.9 hPa | 1.52 mm | - | 23 W/m² | - |
| 1778091844 | 15° C | 95% | 1023.9 hPa | 1.78 mm | - | 104 W/m² | - |
| 1778087044 | 15.56° C | 89% | 1023.9 hPa | 0.25 mm | - | 65 W/m² | - |
| 1778086444 | 16.11° C | 86% | 1023.9 hPa | 0 mm | - | 65 W/m² | - |
| 1778084644 | 17.22° C | 80% | 1023.9 hPa | 0 mm | - | 84 W/m² | - |
| 1778082244 | 17.22° C | 80% | 1023.9 hPa | 0 mm | - | 225 W/m² | - |
| 1778079844 | 17.22° C | 80% | 1023.9 hPa | 0 mm | - | 156 W/m² | - |
| 1778079244 | 17.22° C | 80% | 1023.9 hPa | 0 mm | - | 176 W/m² | - |
| 1778075044 | 17.22° C | 79% | 1023.9 hPa | 0 mm | - | 257 W/m² | - |
| 1778073844 | 17.22° C | 81% | 1023.9 hPa | 0 mm | - | 279 W/m² | - |
| 1778073244 | 16.67° C | 83% | 1023.9 hPa | 0 mm | - | 283 W/m² | - |
| 1778067844 | 14.44° C | 88% | 1023.9 hPa | 0 mm | - | 77 W/m² | - |
| 1778064844 | 13.33° C | 89% | 1023.9 hPa | 0 mm | - | 63 W/m² | - |
| 1778062444 | 12.78° C | 89% | 1023.9 hPa | 0 mm | - | 25 W/m² | - |
| 1778060644 | 12.78° C | 89% | 1023.9 hPa | 0 mm | - | 0 W/m² | - |
| 1778060044 | 12.78° C | 89% | 1023.9 hPa | 0 mm | - | 0 W/m² | - |
| 1778058844 | 12.78° C | 88% | 1023.9 hPa | 0 mm | - | 0 W/m² | - |
| 1778057644 | 12.78° C | 88% | 1023.9 hPa | 0 mm | - | 0 W/m² | - |
| 1778057044 | 12.78° C | 88% | 1023.9 hPa | 0 mm | - | 0 W/m² | - |
| 1778056444 | 12.78° C | 87% | 1023.9 hPa | 0 mm | - | 0 W/m² | - |
| 1778054644 | 12.78° C | 86% | 1023.9 hPa | 0 mm | - | 0 W/m² | - |
| 1778052244 | 13.33° C | 83% | 1023.9 hPa | 0 mm | - | 0 W/m² | - |
| 1778051044 | 13.89° C | 81% | 1023.9 hPa | 0 mm | - | 0 W/m² | - |
| 1778049844 | 14.44° C | 80% | 1023.9 hPa | 0 mm | - | 0 W/m² | - |
| 1778048045 | 14.44° C | 78% | 1023.9 hPa | 0 mm | - | 0 W/m² | - |
* Rain latest hour (hover to see other rain measurements)
** Current wind speed in m/s (hover to see current wind gust speed)